sensor_id;sensor_type;location;lat;lon;timestamp;temperature;humidity
67722;SHT31;58309;45.292;11.820;2023-02-01T00:01:36;0.64;99.99
67722;SHT31;58309;45.292;11.820;2023-02-01T00:04:02;0.72;99.99
67722;SHT31;58309;45.292;11.820;2023-02-01T00:06:27;0.60;99.99
67722;SHT31;58309;45.292;11.820;2023-02-01T00:08:54;0.62;99.99
67722;SHT31;58309;45.292;11.820;2023-02-01T00:11:20;0.62;99.99
67722;SHT31;58309;45.292;11.820;2023-02-01T00:13:45;0.66;99.99
67722;SHT31;58309;45.292;11.820;2023-02-01T00:16:14;0.62;99.99
67722;SHT31;58309;45.292;11.820;2023-02-01T00:18:43;0.64;99.99
67722;SHT31;58309;45.292;11.820;2023-02-01T00:21:13;0.66;99.99
67722;SHT31;58309;45.292;11.820;2023-02-01T00:23:40;0.68;99.99
67722;SHT31;58309;45.292;11.820;2023-02-01T00:26:07;0.50;99.99
67722;SHT31;58309;45.292;11.820;2023-02-01T00:28:33;0.54;99.99
67722;SHT31;58309;45.292;11.820;2023-02-01T00:31:01;0.45;99.99
67722;SHT31;58309;45.292;11.820;2023-02-01T00:33:27;0.41;99.99
67722;SHT31;58309;45.292;11.820;2023-02-01T00:35:57;0.30;99.99
67722;SHT31;58309;45.292;11.820;2023-02-01T00:38:24;0.45;99.99
67722;SHT31;58309;45.292;11.820;2023-02-01T00:40:50;0.64;99.99
67722;SHT31;58309;45.292;11.820;2023-02-01T00:43:16;0.75;99.99
67722;SHT31;58309;45.292;11.820;2023-02-01T00:45:41;0.79;99.99
67722;SHT31;58309;45.292;11.820;2023-02-01T00:48:07;0.79;99.99
67722;SHT31;58309;45.292;11.820;2023-02-01T00:50:32;0.79;99.99
67722;SHT31;58309;45.292;11.820;2023-02-01T00:52:58;0.89;99.99
67722;SHT31;58309;45.292;11.820;2023-02-01T00:55:23;0.75;99.99
67722;SHT31;58309;45.292;11.820;2023-02-01T00:57:49;0.69;99.99
67722;SHT31;58309;45.292;11.820;2023-02-01T01:00:15;0.62;99.99
67722;SHT31;58309;45.292;11.820;2023-02-01T01:02:41;0.69;99.99
67722;SHT31;58309;45.292;11.820;2023-02-01T01:05:07;0.64;99.99
67722;SHT31;58309;45.292;11.820;2023-02-01T01:07:32;0.71;99.99
67722;SHT31;58309;45.292;11.820;2023-02-01T01:09:58;0.52;99.99
67722;SHT31;58309;45.292;11.820;2023-02-01T01:12:23;0.42;99.99
67722;SHT31;58309;45.292;11.820;2023-02-01T01:14:49;0.45;99.99
67722;SHT31;58309;45.292;11.820;2023-02-01T01:17:16;0.38;99.99
67722;SHT31;58309;45.292;11.820;2023-02-01T01:19:41;0.30;99.99
67722;SHT31;58309;45.292;11.820;2023-02-01T01:22:07;0.27;99.99
67722;SHT31;58309;45.292;11.820;2023-02-01T01:24:32;0.51;99.99
67722;SHT31;58309;45.292;11.820;2023-02-01T01:26:58;0.68;99.99
67722;SHT31;58309;45.292;11.820;2023-02-01T01:29:23;0.68;99.99
67722;SHT31;58309;45.292;11.820;2023-02-01T01:31:49;0.75;99.99
67722;SHT31;58309;45.292;11.820;2023-02-01T01:34:14;0.71;99.99
67722;SHT31;58309;45.292;11.820;2023-02-01T01:36:40;0.73;99.93
67722;SHT31;58309;45.292;11.820;2023-02-01T01:39:05;0.71;99.74
67722;SHT31;58309;45.292;11.820;2023-02-01T01:41:32;0.75;99.50
67722;SHT31;58309;45.292;11.820;2023-02-01T01:44:03;0.73;99.46
67722;SHT31;58309;45.292;11.820;2023-02-01T01:46:35;0.73;99.50
67722;SHT31;58309;45.292;11.820;2023-02-01T01:49:05;0.72;99.62
67722;SHT31;58309;45.292;11.820;2023-02-01T01:51:36;0.66;99.85
67722;SHT31;58309;45.292;11.820;2023-02-01T01:56:32;0.61;99.59
67722;SHT31;58309;45.292;11.820;2023-02-01T01:58:59;0.52;99.59
67722;SHT31;58309;45.292;11.820;2023-02-01T02:01:25;0.38;99.45
67722;SHT31;58309;45.292;11.820;2023-02-01T02:03:51;0.30;99.59
67722;SHT31;58309;45.292;11.820;2023-02-01T02:08:55;0.13;99.98
67722;SHT31;58309;45.292;11.820;2023-02-01T02:11:20;0.28;99.99
67722;SHT31;58309;45.292;11.820;2023-02-01T02:13:49;0.27;99.99
67722;SHT31;58309;45.292;11.820;2023-02-01T02:36:24;-0.01;99.99
67722;SHT31;58309;45.292;11.820;2023-02-01T02:39:19;0.00;99.99
67722;SHT31;58309;45.292;11.820;2023-02-01T02:41:58;-0.03;99.99
67722;SHT31;58309;45.292;11.820;2023-02-01T02:53:23;0.00;99.99
67722;SHT31;58309;45.292;11.820;2023-02-01T02:56:09;0.01;99.99
67722;SHT31;58309;45.292;11.820;2023-02-01T02:58:55;0.09;99.99
67722;SHT31;58309;45.292;11.820;2023-02-01T03:01:39;0.15;99.99
67722;SHT31;58309;45.292;11.820;2023-02-01T03:04:24;0.21;99.99
67722;SHT31;58309;45.292;11.820;2023-02-01T03:06:52;0.25;99.99
67722;SHT31;58309;45.292;11.820;2023-02-01T03:09:30;0.37;99.99
67722;SHT31;58309;45.292;11.820;2023-02-01T03:12:04;0.41;99.99
67722;SHT31;58309;45.292;11.820;2023-02-01T03:14:52;0.57;99.96
67722;SHT31;58309;45.292;11.820;2023-02-01T03:17:24;0.58;99.50
67722;SHT31;58309;45.292;11.820;2023-02-01T03:19:53;0.64;99.49
67722;SHT31;58309;45.292;11.820;2023-02-01T03:22:24;0.62;99.33
67722;SHT31;58309;45.292;11.820;2023-02-01T03:24:54;0.65;99.53
67722;SHT31;58309;45.292;11.820;2023-02-01T03:32:23;0.71;99.24
67722;SHT31;58309;45.292;11.820;2023-02-01T03:34:49;0.76;99.46
67722;SHT31;58309;45.292;11.820;2023-02-01T03:37:25;0.85;99.21
67722;SHT31;58309;45.292;11.820;2023-02-01T03:40:00;0.99;99.25
67722;SHT31;58309;45.292;11.820;2023-02-01T03:42:49;1.16;97.70
67722;SHT31;58309;45.292;11.820;2023-02-01T03:45:25;1.23;98.05
67722;SHT31;58309;45.292;11.820;2023-02-01T03:47:55;1.32;97.16
67722;SHT31;58309;45.292;11.820;2023-02-01T03:50:22;1.36;97.00
67722;SHT31;58309;45.292;11.820;2023-02-01T03:52:54;1.40;96.85
67722;SHT31;58309;45.292;11.820;2023-02-01T03:55:23;1.46;97.80
67722;SHT31;58309;45.292;11.820;2023-02-01T03:58:14;1.50;97.09
67722;SHT31;58309;45.292;11.820;2023-02-01T04:00:44;1.57;97.13
67722;SHT31;58309;45.292;11.820;2023-02-01T04:03:11;1.60;97.60
67722;SHT31;58309;45.292;11.820;2023-02-01T04:05:37;1.71;96.82
67722;SHT31;58309;45.292;11.820;2023-02-01T04:08:03;1.84;95.56
67722;SHT31;58309;45.292;11.820;2023-02-01T04:10:30;1.86;95.66
67722;SHT31;58309;45.292;11.820;2023-02-01T04:12:55;1.95;96.15
67722;SHT31;58309;45.292;11.820;2023-02-01T04:15:21;2.01;95.58
67722;SHT31;58309;45.292;11.820;2023-02-01T04:17:46;2.06;95.64
67722;SHT31;58309;45.292;11.820;2023-02-01T04:20:12;2.09;95.91
67722;SHT31;58309;45.292;11.820;2023-02-01T04:22:38;2.13;95.65
67722;SHT31;58309;45.292;11.820;2023-02-01T04:25:03;2.16;96.00
67722;SHT31;58309;45.292;11.820;2023-02-01T04:27:31;2.19;95.75
67722;SHT31;58309;45.292;11.820;2023-02-01T04:29:56;2.22;95.27
67722;SHT31;58309;45.292;11.820;2023-02-01T04:32:22;2.21;95.14
67722;SHT31;58309;45.292;11.820;2023-02-01T04:34:48;2.23;94.70
67722;SHT31;58309;45.292;11.820;2023-02-01T04:37:13;2.30;94.98
67722;SHT31;58309;45.292;11.820;2023-02-01T04:39:39;2.33;95.76
67722;SHT31;58309;45.292;11.820;2023-02-01T04:42:04;2.39;95.76
67722;SHT31;58309;45.292;11.820;2023-02-01T04:44:30;2.46;95.88
67722;SHT31;58309;45.292;11.820;2023-02-01T04:46:55;2.53;95.09
67722;SHT31;58309;45.292;11.820;2023-02-01T04:49:21;2.57;96.22
67722;SHT31;58309;45.292;11.820;2023-02-01T04:51:47;2.64;95.63
67722;SHT31;58309;45.292;11.820;2023-02-01T04:54:13;2.66;95.83
67722;SHT31;58309;45.292;11.820;2023-02-01T04:56:38;2.81;96.46
67722;SHT31;58309;45.292;11.820;2023-02-01T04:59:04;2.85;96.86
67722;SHT31;58309;45.292;11.820;2023-02-01T05:01:30;2.90;95.98
67722;SHT31;58309;45.292;11.820;2023-02-01T05:03:56;2.94;96.51
67722;SHT31;58309;45.292;11.820;2023-02-01T05:06:22;3.01;97.05
67722;SHT31;58309;45.292;11.820;2023-02-01T05:08:49;3.09;97.68
67722;SHT31;58309;45.292;11.820;2023-02-01T05:11:15;3.15;98.02
67722;SHT31;58309;45.292;11.820;2023-02-01T05:13:59;3.18;98.38
67722;SHT31;58309;45.292;11.820;2023-02-01T05:16:26;3.24;98.55
67722;SHT31;58309;45.292;11.820;2023-02-01T05:18:52;3.26;98.64
67722;SHT31;58309;45.292;11.820;2023-02-01T05:21:17;3.34;98.73
67722;SHT31;58309;45.292;11.820;2023-02-01T05:23:43;3.35;98.79
67722;SHT31;58309;45.292;11.820;2023-02-01T05:26:27;3.40;98.96
67722;SHT31;58309;45.292;11.820;2023-02-01T05:28:53;3.43;98.54
67722;SHT31;58309;45.292;11.820;2023-02-01T05:31:19;3.43;98.44
67722;SHT31;58309;45.292;11.820;2023-02-01T05:33:44;3.43;98.24
67722;SHT31;58309;45.292;11.820;2023-02-01T05:36:10;3.46;98.51
67722;SHT31;58309;45.292;11.820;2023-02-01T05:38:35;3.46;98.77
67722;SHT31;58309;45.292;11.820;2023-02-01T05:41:01;3.48;98.83
67722;SHT31;58309;45.292;11.820;2023-02-01T05:43:26;3.56;98.93
67722;SHT31;58309;45.292;11.820;2023-02-01T05:45:52;3.59;98.86
67722;SHT31;58309;45.292;11.820;2023-02-01T05:48:18;3.63;98.98
67722;SHT31;58309;45.292;11.820;2023-02-01T05:50:44;3.66;98.87
67722;SHT31;58309;45.292;11.820;2023-02-01T05:53:09;3.70;99.04
67722;SHT31;58309;45.292;11.820;2023-02-01T05:55:36;3.67;98.79
67722;SHT31;58309;45.292;11.820;2023-02-01T05:58:02;3.70;98.85
67722;SHT31;58309;45.292;11.820;2023-02-01T06:00:28;3.73;98.72
67722;SHT31;58309;45.292;11.820;2023-02-01T06:02:53;3.77;98.71
67722;SHT31;58309;45.292;11.820;2023-02-01T06:05:19;3.76;98.35
67722;SHT31;58309;45.292;11.820;2023-02-01T06:07:44;3.75;97.83
67722;SHT31;58309;45.292;11.820;2023-02-01T06:10:10;3.67;97.73
67722;SHT31;58309;45.292;11.820;2023-02-01T06:12:36;3.66;97.73
67722;SHT31;58309;45.292;11.820;2023-02-01T06:15:02;3.56;96.61
67722;SHT31;58309;45.292;11.820;2023-02-01T06:17:27;3.48;96.21
67722;SHT31;58309;45.292;11.820;2023-02-01T06:19:53;3.42;96.29
67722;SHT31;58309;45.292;11.820;2023-02-01T06:22:18;3.40;96.66
67722;SHT31;58309;45.292;11.820;2023-02-01T06:24:44;3.43;97.32
67722;SHT31;58309;45.292;11.820;2023-02-01T06:27:09;3.46;97.42
67722;SHT31;58309;45.292;11.820;2023-02-01T06:29:35;3.49;97.21
67722;SHT31;58309;45.292;11.820;2023-02-01T06:32:01;3.52;97.31
67722;SHT31;58309;45.292;11.820;2023-02-01T06:34:28;3.51;97.07
67722;SHT31;58309;45.292;11.820;2023-02-01T06:36:53;3.53;97.08
67722;SHT31;58309;45.292;11.820;2023-02-01T06:39:20;3.56;97.03
67722;SHT31;58309;45.292;11.820;2023-02-01T06:41:47;3.56;97.06
67722;SHT31;58309;45.292;11.820;2023-02-01T06:44:13;3.56;97.22
67722;SHT31;58309;45.292;11.820;2023-02-01T06:46:39;3.56;97.73
67722;SHT31;58309;45.292;11.820;2023-02-01T06:49:04;3.65;97.65
67722;SHT31;58309;45.292;11.820;2023-02-01T06:51:30;3.65;97.34
67722;SHT31;58309;45.292;11.820;2023-02-01T06:53:56;3.67;97.49
67722;SHT31;58309;45.292;11.820;2023-02-01T06:56:22;3.67;97.25
67722;SHT31;58309;45.292;11.820;2023-02-01T06:58:48;3.76;97.82
67722;SHT31;58309;45.292;11.820;2023-02-01T07:01:14;3.73;97.50
67722;SHT31;58309;45.292;11.820;2023-02-01T07:03:40;3.76;97.54
67722;SHT31;58309;45.292;11.820;2023-02-01T07:06:06;3.72;97.43
67722;SHT31;58309;45.292;11.820;2023-02-01T07:08:33;3.62;97.53
67722;SHT31;58309;45.292;11.820;2023-02-01T07:11:08;3.56;97.82
67722;SHT31;58309;45.292;11.820;2023-02-01T07:13:34;3.45;97.57
67722;SHT31;58309;45.292;11.820;2023-02-01T07:16:08;3.34;97.80
67722;SHT31;58309;45.292;11.820;2023-02-01T07:18:34;3.32;98.14
67722;SHT31;58309;45.292;11.820;2023-02-01T07:21:00;3.22;97.80
67722;SHT31;58309;45.292;11.820;2023-02-01T07:23:26;3.09;97.46
67722;SHT31;58309;45.292;11.820;2023-02-01T07:25:56;2.93;97.39
67722;SHT31;58309;45.292;11.820;2023-02-01T07:28:22;2.83;97.88
67722;SHT31;58309;45.292;11.820;2023-02-01T07:30:47;2.77;98.60
67722;SHT31;58309;45.292;11.820;2023-02-01T07:33:18;2.73;98.79
67722;SHT31;58309;45.292;11.820;2023-02-01T07:35:44;2.77;98.92
67722;SHT31;58309;45.292;11.820;2023-02-01T07:38:10;2.77;98.66
67722;SHT31;58309;45.292;11.820;2023-02-01T07:40:35;2.88;98.82
67722;SHT31;58309;45.292;11.820;2023-02-01T07:43:01;2.95;99.05
67722;SHT31;58309;45.292;11.820;2023-02-01T07:45:26;3.04;98.87
67722;SHT31;58309;45.292;11.820;2023-02-01T07:47:52;3.12;98.83
67722;SHT31;58309;45.292;11.820;2023-02-01T07:50:19;3.26;99.04
67722;SHT31;58309;45.292;11.820;2023-02-01T07:52:44;3.35;98.56
67722;SHT31;58309;45.292;11.820;2023-02-01T07:55:10;3.40;98.18
67722;SHT31;58309;45.292;11.820;2023-02-01T07:57:36;3.45;98.24
67722;SHT31;58309;45.292;11.820;2023-02-01T08:00:02;3.60;98.29
67722;SHT31;58309;45.292;11.820;2023-02-01T08:02:46;3.85;97.89
67722;SHT31;58309;45.292;11.820;2023-02-01T08:05:11;3.96;96.34
67722;SHT31;58309;45.292;11.820;2023-02-01T08:07:37;4.08;96.44
67722;SHT31;58309;45.292;11.820;2023-02-01T08:10:03;4.21;95.92
67722;SHT31;58309;45.292;11.820;2023-02-01T08:12:30;4.30;95.77
67722;SHT31;58309;45.292;11.820;2023-02-01T08:14:56;4.42;95.33
67722;SHT31;58309;45.292;11.820;2023-02-01T08:17:21;4.56;95.01
67722;SHT31;58309;45.292;11.820;2023-02-01T08:19:47;4.73;95.10
67722;SHT31;58309;45.292;11.820;2023-02-01T08:22:12;4.86;94.29
67722;SHT31;58309;45.292;11.820;2023-02-01T08:24:38;5.03;93.21
67722;SHT31;58309;45.292;11.820;2023-02-01T08:27:05;5.17;92.53
67722;SHT31;58309;45.292;11.820;2023-02-01T08:29:31;5.33;92.94
67722;SHT31;58309;45.292;11.820;2023-02-01T08:31:56;5.40;91.48
67722;SHT31;58309;45.292;11.820;2023-02-01T08:34:22;5.64;91.58
67722;SHT31;58309;45.292;11.820;2023-02-01T08:36:48;6.18;89.56
67722;SHT31;58309;45.292;11.820;2023-02-01T08:39:14;6.80;87.29
67722;SHT31;58309;45.292;11.820;2023-02-01T08:41:40;7.16;84.73
67722;SHT31;58309;45.292;11.820;2023-02-01T08:44:07;7.21;84.56
67722;SHT31;58309;45.292;11.820;2023-02-01T08:46:33;7.40;83.13
67722;SHT31;58309;45.292;11.820;2023-02-01T08:48:59;7.58;82.81
67722;SHT31;58309;45.292;11.820;2023-02-01T08:51:24;8.01;83.58
67722;SHT31;58309;45.292;11.820;2023-02-01T08:53:51;8.27;80.99
67722;SHT31;58309;45.292;11.820;2023-02-01T08:56:17;8.34;79.38
67722;SHT31;58309;45.292;11.820;2023-02-01T08:58:43;8.11;80.21
67722;SHT31;58309;45.292;11.820;2023-02-01T09:01:12;8.17;80.08
67722;SHT31;58309;45.292;11.820;2023-02-01T09:03:38;8.45;80.35
67722;SHT31;58309;45.292;11.820;2023-02-01T09:06:06;8.42;78.58
67722;SHT31;58309;45.292;11.820;2023-02-01T09:08:33;8.22;79.36
67722;SHT31;58309;45.292;11.820;2023-02-01T09:11:03;8.66;79.58
67722;SHT31;58309;45.292;11.820;2023-02-01T09:13:29;8.56;78.27
67722;SHT31;58309;45.292;11.820;2023-02-01T09:15:55;8.84;77.15
67722;SHT31;58309;45.292;11.820;2023-02-01T09:18:20;9.07;77.69
67722;SHT31;58309;45.292;11.820;2023-02-01T09:20:46;9.11;76.05
67722;SHT31;58309;45.292;11.820;2023-02-01T09:23:12;9.72;75.81
67722;SHT31;58309;45.292;11.820;2023-02-01T09:25:37;10.01;74.54
67722;SHT31;58309;45.292;11.820;2023-02-01T09:28:04;10.29;72.59
67722;SHT31;58309;45.292;11.820;2023-02-01T09:30:33;10.92;72.63
67722;SHT31;58309;45.292;11.820;2023-02-01T09:32:59;11.56;69.50
67722;SHT31;58309;45.292;11.820;2023-02-01T09:35:24;11.66;65.48
67722;SHT31;58309;45.292;11.820;2023-02-01T09:37:52;12.30;63.57
67722;SHT31;58309;45.292;11.820;2023-02-01T09:40:18;12.54;61.72
67722;SHT31;58309;45.292;11.820;2023-02-01T09:45:53;12.72;61.81
67722;SHT31;58309;45.292;11.820;2023-02-01T09:48:19;12.63;62.70
67722;SHT31;58309;45.292;11.820;2023-02-01T09:50:49;12.71;60.87
67722;SHT31;58309;45.292;11.820;2023-02-01T09:53:25;13.34;59.94
67722;SHT31;58309;45.292;11.820;2023-02-01T09:55:56;13.39;58.31
67722;SHT31;58309;45.292;11.820;2023-02-01T09:58:59;13.85;56.46
67722;SHT31;58309;45.292;11.820;2023-02-01T10:01:26;12.58;60.83
67722;SHT31;58309;45.292;11.820;2023-02-01T10:04:14;11.91;63.36
67722;SHT31;58309;45.292;11.820;2023-02-01T10:12:38;13.37;59.11
67722;SHT31;58309;45.292;11.820;2023-02-01T10:16:04;14.05;57.54
67722;SHT31;58309;45.292;11.820;2023-02-01T10:24:25;14.01;56.62
67722;SHT31;58309;45.292;11.820;2023-02-01T10:27:22;14.37;56.70
67722;SHT31;58309;45.292;11.820;2023-02-01T10:29:59;13.40;57.73
67722;SHT31;58309;45.292;11.820;2023-02-01T10:32:33;13.07;59.28
67722;SHT31;58309;45.292;11.820;2023-02-01T10:35:12;13.61;58.49
67722;SHT31;58309;45.292;11.820;2023-02-01T10:37:41;14.06;57.39
67722;SHT31;58309;45.292;11.820;2023-02-01T10:42:47;13.57;57.70
67722;SHT31;58309;45.292;11.820;2023-02-01T10:45:17;12.56;60.63
67722;SHT31;58309;45.292;11.820;2023-02-01T10:47:44;12.99;58.48
67722;SHT31;58309;45.292;11.820;2023-02-01T10:50:35;14.05;57.62
67722;SHT31;58309;45.292;11.820;2023-02-01T10:53:31;13.89;57.73
67722;SHT31;58309;45.292;11.820;2023-02-01T10:56:09;14.30;55.96
67722;SHT31;58309;45.292;11.820;2023-02-01T10:58:36;14.73;53.95
67722;SHT31;58309;45.292;11.820;2023-02-01T11:01:09;15.28;54.04
67722;SHT31;58309;45.292;11.820;2023-02-01T11:03:46;14.74;54.49
67722;SHT31;58309;45.292;11.820;2023-02-01T11:08:50;14.02;57.53
67722;SHT31;58309;45.292;11.820;2023-02-01T11:11:17;14.84;54.04
67722;SHT31;58309;45.292;11.820;2023-02-01T11:13:43;15.05;54.76
67722;SHT31;58309;45.292;11.820;2023-02-01T11:16:13;14.11;55.91
67722;SHT31;58309;45.292;11.820;2023-02-01T11:18:40;14.57;56.08
67722;SHT31;58309;45.292;11.820;2023-02-01T11:21:07;13.74;57.93
67722;SHT31;58309;45.292;11.820;2023-02-01T11:23:33;14.49;55.92
67722;SHT31;58309;45.292;11.820;2023-02-01T11:26:12;14.33;56.23
67722;SHT31;58309;45.292;11.820;2023-02-01T11:28:39;14.42;55.29
67722;SHT31;58309;45.292;11.820;2023-02-01T11:31:10;14.34;57.10
67722;SHT31;58309;45.292;11.820;2023-02-01T11:33:40;14.02;57.34
67722;SHT31;58309;45.292;11.820;2023-02-01T11:36:12;13.67;57.47
67722;SHT31;58309;45.292;11.820;2023-02-01T11:38:38;14.50;56.54
67722;SHT31;58309;45.292;11.820;2023-02-01T11:41:19;13.86;58.40
67722;SHT31;58309;45.292;11.820;2023-02-01T11:43:54;15.00;54.54
67722;SHT31;58309;45.292;11.820;2023-02-01T11:46:23;15.21;53.16
67722;SHT31;58309;45.292;11.820;2023-02-01T11:48:54;14.25;55.86
67722;SHT31;58309;45.292;11.820;2023-02-01T11:51:45;13.06;59.58
67722;SHT31;58309;45.292;11.820;2023-02-01T12:06:19;15.15;53.10
67722;SHT31;58309;45.292;11.820;2023-02-01T12:17:22;12.78;59.37
67722;SHT31;58309;45.292;11.820;2023-02-01T12:39:28;13.88;56.82
67722;SHT31;58309;45.292;11.820;2023-02-01T12:42:03;13.86;57.56
67722;SHT31;58309;45.292;11.820;2023-02-01T12:44:53;14.02;57.18
67722;SHT31;58309;45.292;11.820;2023-02-01T12:52:37;13.26;58.05
67722;SHT31;58309;45.292;11.820;2023-02-01T12:55:17;13.26;59.16
67722;SHT31;58309;45.292;11.820;2023-02-01T12:58:06;12.93;59.98
67722;SHT31;58309;45.292;11.820;2023-02-01T13:00:39;12.86;60.13
67722;SHT31;58309;45.292;11.820;2023-02-01T13:06:36;12.61;61.00
67722;SHT31;58309;45.292;11.820;2023-02-01T13:11:37;12.55;60.77
67722;SHT31;58309;45.292;11.820;2023-02-01T13:14:33;12.42;62.21
67722;SHT31;58309;45.292;11.820;2023-02-01T13:17:09;12.18;63.59
67722;SHT31;58309;45.292;11.820;2023-02-01T13:19:59;11.80;65.92
67722;SHT31;58309;45.292;11.820;2023-02-01T13:22:31;11.59;66.27
67722;SHT31;58309;45.292;11.820;2023-02-01T13:25:07;11.80;65.98
67722;SHT31;58309;45.292;11.820;2023-02-01T13:27:37;11.49;65.30
67722;SHT31;58309;45.292;11.820;2023-02-01T13:30:20;11.33;66.42
67722;SHT31;58309;45.292;11.820;2023-02-01T13:33:24;11.11;67.71
67722;SHT31;58309;45.292;11.820;2023-02-01T13:36:10;10.71;69.64
67722;SHT31;58309;45.292;11.820;2023-02-01T13:41:30;10.56;71.81
67722;SHT31;58309;45.292;11.820;2023-02-01T13:44:04;10.63;72.15
67722;SHT31;58309;45.292;11.820;2023-02-01T13:46:40;10.60;72.16
67722;SHT31;58309;45.292;11.820;2023-02-01T13:49:07;10.61;71.55
67722;SHT31;58309;45.292;11.820;2023-02-01T13:51:43;10.49;71.76
67722;SHT31;58309;45.292;11.820;2023-02-01T13:54:31;10.39;72.56
67722;SHT31;58309;45.292;11.820;2023-02-01T13:56:59;10.26;71.98
67722;SHT31;58309;45.292;11.820;2023-02-01T14:10:59;10.06;73.72
67722;SHT31;58309;45.292;11.820;2023-02-01T14:13:31;9.95;74.22
67722;SHT31;58309;45.292;11.820;2023-02-01T14:23:46;10.08;75.11
67722;SHT31;58309;45.292;11.820;2023-02-01T14:34:29;9.92;75.41
67722;SHT31;58309;45.292;11.820;2023-02-01T14:36:59;9.85;74.84
67722;SHT31;58309;45.292;11.820;2023-02-01T14:44:55;9.72;75.43
67722;SHT31;58309;45.292;11.820;2023-02-01T14:52:42;9.57;74.84
67722;SHT31;58309;45.292;11.820;2023-02-01T14:55:28;9.47;75.30
67722;SHT31;58309;45.292;11.820;2023-02-01T14:57:58;9.37;75.34
67722;SHT31;58309;45.292;11.820;2023-02-01T15:00:30;9.28;76.03
67722;SHT31;58309;45.292;11.820;2023-02-01T15:05:40;9.13;76.62
67722;SHT31;58309;45.292;11.820;2023-02-01T15:08:17;8.99;77.43
67722;SHT31;58309;45.292;11.820;2023-02-01T15:10:47;8.87;77.33
67722;SHT31;58309;45.292;11.820;2023-02-01T15:13:20;8.79;77.52
67722;SHT31;58309;45.292;11.820;2023-02-01T15:16:09;8.66;78.07
67722;SHT31;58309;45.292;11.820;2023-02-01T15:18:35;8.55;78.50
67722;SHT31;58309;45.292;11.820;2023-02-01T15:21:03;8.39;78.91
67722;SHT31;58309;45.292;11.820;2023-02-01T15:23:29;8.31;79.57
67722;SHT31;58309;45.292;11.820;2023-02-01T15:25:55;8.20;79.95
67722;SHT31;58309;45.292;11.820;2023-02-01T15:28:21;8.12;80.32
67722;SHT31;58309;45.292;11.820;2023-02-01T15:30:59;8.12;80.90
67722;SHT31;58309;45.292;11.820;2023-02-01T15:33:26;8.01;81.15
67722;SHT31;58309;45.292;11.820;2023-02-01T15:38:41;7.62;82.43
67722;SHT31;58309;45.292;11.820;2023-02-01T15:46:21;7.23;84.50
67722;SHT31;58309;45.292;11.820;2023-02-01T15:48:49;7.15;85.44
67722;SHT31;58309;45.292;11.820;2023-02-01T15:51:18;7.04;85.58
67722;SHT31;58309;45.292;11.820;2023-02-01T15:53:47;6.97;86.63
67722;SHT31;58309;45.292;11.820;2023-02-01T15:56:13;6.94;86.48
67722;SHT31;58309;45.292;11.820;2023-02-01T15:58:41;6.83;87.19
67722;SHT31;58309;45.292;11.820;2023-02-01T16:01:11;6.71;87.62
67722;SHT31;58309;45.292;11.820;2023-02-01T16:03:44;6.58;87.95
67722;SHT31;58309;45.292;11.820;2023-02-01T16:06:28;6.58;88.23
67722;SHT31;58309;45.292;11.820;2023-02-01T16:11:26;6.61;88.11
67722;SHT31;58309;45.292;11.820;2023-02-01T16:13:53;6.58;88.08
67722;SHT31;58309;45.292;11.820;2023-02-01T16:16:19;6.60;88.04
67722;SHT31;58309;45.292;11.820;2023-02-01T16:18:44;6.53;88.07
67722;SHT31;58309;45.292;11.820;2023-02-01T16:21:11;6.49;87.87
67722;SHT31;58309;45.292;11.820;2023-02-01T16:23:36;6.28;88.05
67722;SHT31;58309;45.292;11.820;2023-02-01T16:26:03;5.99;88.48
67722;SHT31;58309;45.292;11.820;2023-02-01T16:28:29;5.72;89.64
67722;SHT31;58309;45.292;11.820;2023-02-01T16:30:54;5.41;90.01
67722;SHT31;58309;45.292;11.820;2023-02-01T16:33:21;5.16;90.92
67722;SHT31;58309;45.292;11.820;2023-02-01T16:35:51;4.95;91.57
67722;SHT31;58309;45.292;11.820;2023-02-01T16:38:18;4.80;92.53
67722;SHT31;58309;45.292;11.820;2023-02-01T16:40:47;4.69;93.55
67722;SHT31;58309;45.292;11.820;2023-02-01T16:43:17;4.58;94.31
67722;SHT31;58309;45.292;11.820;2023-02-01T16:45:45;4.38;94.18
67722;SHT31;58309;45.292;11.820;2023-02-01T16:48:23;4.71;95.18
67722;SHT31;58309;45.292;11.820;2023-02-01T16:50:53;4.69;95.56
67722;SHT31;58309;45.292;11.820;2023-02-01T16:53:21;4.68;95.67
67722;SHT31;58309;45.292;11.820;2023-02-01T16:55:47;4.64;95.82
67722;SHT31;58309;45.292;11.820;2023-02-01T16:58:15;4.71;96.15
67722;SHT31;58309;45.292;11.820;2023-02-01T17:00:42;4.82;95.79
67722;SHT31;58309;45.292;11.820;2023-02-01T17:03:10;4.79;95.87
67722;SHT31;58309;45.292;11.820;2023-02-01T17:05:44;4.75;95.41
67722;SHT31;58309;45.292;11.820;2023-02-01T17:08:14;4.66;96.23
67722;SHT31;58309;45.292;11.820;2023-02-01T17:10:41;4.48;96.01
67722;SHT31;58309;45.292;11.820;2023-02-01T17:13:14;4.30;95.52
67722;SHT31;58309;45.292;11.820;2023-02-01T17:15:40;4.17;96.47
67722;SHT31;58309;45.292;11.820;2023-02-01T17:18:11;4.25;97.16
67722;SHT31;58309;45.292;11.820;2023-02-01T17:20:39;4.17;96.71
67722;SHT31;58309;45.292;11.820;2023-02-01T17:23:06;4.14;96.98
67722;SHT31;58309;45.292;11.820;2023-02-01T17:25:32;3.91;96.16
67722;SHT31;58309;45.292;11.820;2023-02-01T17:27:57;3.82;96.82
67722;SHT31;58309;45.292;11.820;2023-02-01T17:30:24;3.91;97.95
67722;SHT31;58309;45.292;11.820;2023-02-01T17:32:49;3.77;97.17
67722;SHT31;58309;45.292;11.820;2023-02-01T17:35:20;3.65;97.39
67722;SHT31;58309;45.292;11.820;2023-02-01T17:37:47;3.60;97.95
67722;SHT31;58309;45.292;11.820;2023-02-01T17:40:13;3.51;98.08
67722;SHT31;58309;45.292;11.820;2023-02-01T17:42:39;3.36;97.50
67722;SHT31;58309;45.292;11.820;2023-02-01T17:45:21;3.39;98.15
67722;SHT31;58309;45.292;11.820;2023-02-01T17:47:48;3.48;98.62
67722;SHT31;58309;45.292;11.820;2023-02-01T17:50:14;3.46;98.93
67722;SHT31;58309;45.292;11.820;2023-02-01T17:52:40;3.49;99.39
67722;SHT31;58309;45.292;11.820;2023-02-01T17:55:17;3.35;98.31
67722;SHT31;58309;45.292;11.820;2023-02-01T17:57:43;3.14;97.82
67722;SHT31;58309;45.292;11.820;2023-02-01T18:00:10;3.01;98.06
67722;SHT31;58309;45.292;11.820;2023-02-01T18:02:38;2.94;98.93
67722;SHT31;58309;45.292;11.820;2023-02-01T18:05:13;2.83;98.68
67722;SHT31;58309;45.292;11.820;2023-02-01T18:07:40;2.85;99.99
67722;SHT31;58309;45.292;11.820;2023-02-01T18:10:05;2.74;98.96
67722;SHT31;58309;45.292;11.820;2023-02-01T18:12:32;2.79;99.16
67722;SHT31;58309;45.292;11.820;2023-02-01T18:14:58;2.77;99.64
67722;SHT31;58309;45.292;11.820;2023-02-01T18:17:23;2.67;98.98
67722;SHT31;58309;45.292;11.820;2023-02-01T18:19:49;2.57;98.57
67722;SHT31;58309;45.292;11.820;2023-02-01T18:22:16;2.44;98.58
67722;SHT31;58309;45.292;11.820;2023-02-01T18:24:42;2.33;99.15
67722;SHT31;58309;45.292;11.820;2023-02-01T18:27:08;2.21;98.85